Aérodrome :
LOGIN :

S'inscrire | Disclaimer

   EN    FR    IT 

 










Légende :    VFR   VFR Marginal   IFR   IFR Intensif   IFR Très Intensif
Visi : 
Plafond : 
>= 8 km
>= 3000ft
5 à 8 km
1000 à 3000 ft
1500m à 5 km
500 à 1000 ft
800 à 1500m
200 à 500 ft
< 800m
< 200 ft
Symboles :   Orages  Brouillard  Fortes neiges  Fortes précipitations  Vent > 20 kt
SIGMETs :   Divers  Orages  Givrage  Turbulence  Onde Orograph.  Cendres Volcan.






- Altitude de l'aérodrome : 1345 ft
- Code IATA : FRZ


ETHF - Fritzlar

DERNIER METAR :
  • 140420Z 11006KT 9999 -RA FEW001 BKN100 19/18 Q1013 BLU

METARs EXPIRÉS :
  • 140320Z 07003KT 9999 -RA FEW060 BKN100 18/18 Q1013 BLU
  • 140220Z 18004KT 9999 -RA FEW010 BKN060 BKN100 18/18 Q1013 RETSRA BLU
  • 140158Z 06002KT 9999 -RA SCT060 BKN100 18/18 Q1013 RETSRA BLU

TAF TAF ETHF
Valide du 14 à 05h jusqu'au 14 à 14h UTC


140420Z 1405/1414 18005KT 9999 NSW FEW060 BKN100
PROB30 1413/1414 VRB15G35KT 2000 +TSRA SCT020 BKN040CB



MET'MAP, la Météo Aéronautique d'un coup d'oeil ! - Copyright ORBIFLY Décembre 2007 - Disclaimer

ORBIFLY MET'MAP TEAM :

Programmation & Développement : Alexandra Zaïnal
Sur une idée originale de : Baudouin d'Aumeries
Assistance à la programmation : Marc-Olivier Méhu
Soutien technique & logistique : Manuel Goepfert

Contact : metmap@orbifly.com




SOURCES & CREDITS :

   NOAA